createdAt,value
2019-05-06T00:03:39.992Z,14.93
2019-05-06T00:08:44.631Z,14.96
2019-05-06T00:13:49.197Z,15.00
2019-05-06T00:18:54.228Z,15.06
2019-05-06T00:23:58.913Z,14.98
2019-05-06T00:29:05.250Z,14.93
2019-05-06T00:34:09.958Z,15.05
2019-05-06T00:39:33.684Z,14.85
2019-05-06T00:44:38.356Z,14.86
2019-05-06T00:49:43.618Z,14.65
2019-05-06T00:54:48.259Z,14.69
2019-05-06T00:59:53.838Z,14.55
2019-05-06T01:04:58.571Z,14.30
2019-05-06T01:10:03.772Z,14.18
2019-05-06T01:15:14.277Z,14.18
2019-05-06T01:20:18.993Z,14.11
2019-05-06T01:25:23.847Z,14.02
2019-05-06T01:30:28.622Z,13.87
2019-05-06T01:35:35.072Z,13.74
2019-05-06T01:40:54.688Z,13.69
2019-05-06T01:45:59.409Z,13.57
2019-05-06T01:51:04.021Z,13.49
2019-05-06T01:56:08.564Z,13.53
2019-05-06T02:01:14.756Z,13.51
2019-05-06T02:06:19.617Z,13.51
2019-05-06T02:11:24.285Z,13.46
2019-05-06T02:16:28.764Z,13.44
2019-05-06T02:21:35.046Z,13.47
2019-05-06T02:26:39.593Z,13.30
2019-05-06T02:31:54.603Z,13.35
2019-05-06T02:37:05.965Z,13.30
2019-05-06T02:42:08.777Z,13.32
2019-05-06T02:47:34.040Z,13.26
2019-05-06T02:52:37.181Z,13.25
2019-05-06T02:57:43.989Z,13.12
2019-05-06T03:02:48.716Z,13.24
2019-05-06T03:07:57.464Z,13.25
2019-05-06T03:13:02.987Z,13.30
2019-05-06T03:18:07.033Z,13.21
2019-05-06T03:23:15.888Z,13.16
2019-05-06T03:28:22.550Z,13.19
2019-05-06T03:33:47.066Z,13.17
2019-05-06T03:38:33.886Z,13.13
2019-05-06T03:43:38.439Z,13.26
2019-05-06T03:48:53.371Z,13.48
2019-05-06T03:54:00.080Z,13.40
2019-05-06T03:59:05.219Z,13.61
2019-05-06T04:04:12.488Z,13.90
2019-05-06T04:09:16.068Z,13.97
2019-05-06T04:14:23.866Z,14.13
2019-05-06T04:19:33.417Z,14.35
2019-05-06T04:24:45.680Z,14.28
2019-05-06T04:29:50.312Z,14.46
2019-05-06T04:34:55.010Z,14.61
2019-05-06T04:39:59.622Z,14.58
2019-05-06T04:45:05.009Z,14.70
2019-05-06T04:50:12.927Z,15.67
2019-05-06T04:55:16.476Z,15.85
2019-05-06T05:00:23.388Z,15.99
2019-05-06T05:05:32.836Z,15.99
2019-05-06T05:10:43.140Z,15.75
2019-05-06T05:16:04.824Z,15.84
2019-05-06T05:21:11.893Z,15.62
2019-05-06T05:26:16.650Z,15.13
2019-05-06T05:31:23.067Z,15.28
2019-05-06T05:36:27.740Z,14.70
2019-05-06T05:41:33.137Z,14.41
2019-05-06T05:46:38.853Z,14.02
2019-05-06T05:51:43.594Z,14.47
2019-05-06T05:56:48.680Z,14.91
2019-05-06T06:01:55.604Z,15.20
2019-05-06T06:07:02.497Z,15.41
2019-05-06T06:12:07.416Z,15.44
2019-05-06T06:17:29.003Z,16.03
2019-05-06T06:22:33.857Z,16.60
2019-05-06T06:27:51.854Z,17.50
2019-05-06T06:32:56.000Z,18.67
2019-05-06T06:38:08.221Z,16.89
2019-05-06T06:43:14.498Z,16.89
2019-05-06T06:48:19.232Z,16.68
2019-05-06T06:53:23.833Z,16.60
2019-05-06T06:58:32.178Z,16.80
2019-05-06T07:03:43.203Z,16.50
2019-05-06T07:08:47.957Z,16.35
2019-05-06T07:13:54.253Z,16.78
2019-05-06T07:18:58.829Z,18.42
2019-05-06T07:24:03.600Z,20.99
2019-05-06T07:29:16.817Z,22.32
2019-05-06T07:34:14.474Z,20.80
2019-05-06T07:39:19.047Z,18.91
2019-05-06T07:44:42.360Z,21.71
2019-05-06T07:49:46.964Z,25.23
2019-05-06T07:54:57.476Z,23.55
2019-05-06T08:00:03.350Z,26.41
2019-05-06T08:05:08.425Z,24.91
2019-05-06T08:10:13.672Z,24.02
2019-05-06T08:15:18.312Z,19.39
2019-05-06T08:20:24.857Z,17.73
2019-05-06T08:25:32.907Z,16.22
2019-05-06T08:30:37.571Z,15.42
2019-05-06T08:35:42.688Z,14.68
2019-05-06T08:40:49.059Z,14.62
2019-05-06T08:45:53.567Z,14.42
2019-05-06T08:51:03.028Z,14.54
2019-05-06T08:56:08.956Z,14.80
2019-05-06T09:01:16.358Z,15.51
2019-05-06T09:06:27.574Z,16.41
2019-05-06T09:11:32.136Z,16.26
2019-05-06T09:16:34.099Z,15.73
2019-05-06T09:21:38.742Z,15.25
2019-05-06T09:26:47.748Z,15.25
2019-05-06T09:31:54.034Z,15.54
2019-05-06T09:37:16.277Z,15.65
2019-05-06T09:42:23.053Z,15.63
2019-05-06T09:47:33.019Z,18.10
2019-05-06T09:52:37.836Z,18.01
2019-05-06T09:58:00.069Z,18.25
2019-05-06T10:03:05.348Z,17.60
2019-05-06T10:08:12.247Z,16.58
2019-05-06T10:13:16.259Z,17.80
2019-05-06T10:18:22.655Z,20.32
2019-05-06T10:23:27.436Z,20.55
2019-05-06T10:28:34.030Z,22.20
2019-05-06T10:33:40.283Z,22.25
2019-05-06T10:38:55.133Z,21.94
2019-05-06T10:44:17.552Z,20.35
2019-05-06T10:49:23.270Z,18.50
2019-05-06T10:54:27.934Z,17.76
2019-05-06T10:59:33.383Z,17.70
2019-05-06T11:04:38.383Z,16.68
2019-05-06T11:09:43.067Z,16.72
2019-05-06T11:14:48.729Z,17.06
2019-05-06T11:19:53.459Z,17.02
2019-05-06T11:24:58.185Z,16.12
2019-05-06T11:30:04.457Z,15.39
2019-05-06T11:35:17.026Z,15.43
2019-05-06T11:40:23.489Z,15.25
2019-05-06T11:45:28.213Z,14.95
2019-05-06T11:50:33.419Z,14.74
2019-05-06T11:55:38.946Z,14.37
2019-05-06T12:00:48.769Z,14.04
2019-05-06T12:05:53.484Z,13.74
2019-05-06T12:10:58.214Z,13.05
2019-05-06T12:16:03.075Z,12.68
2019-05-06T12:21:11.389Z,12.59
2019-05-06T12:26:16.091Z,12.70
2019-05-06T12:31:23.486Z,12.84
2019-05-06T12:36:28.384Z,13.15
2019-05-06T12:41:34.747Z,13.51
2019-05-06T12:46:43.850Z,13.88
2019-05-06T12:51:48.743Z,14.14
2019-05-06T12:56:55.123Z,14.30
2019-05-06T13:02:02.599Z,14.46
2019-05-06T13:07:08.004Z,14.94
2019-05-06T13:12:14.388Z,14.83
2019-05-06T13:17:22.763Z,15.49
2019-05-06T13:22:37.488Z,15.65
2019-05-06T13:27:42.982Z,15.64
2019-05-06T13:32:49.361Z,15.78
2019-05-06T13:37:53.956Z,15.93
2019-05-06T13:43:13.062Z,16.27
2019-05-06T13:48:22.970Z,16.16
2019-05-06T13:53:39.048Z,16.23
2019-05-06T13:58:34.294Z,16.23
2019-05-06T14:03:38.994Z,15.89
2019-05-06T14:08:43.633Z,15.91
2019-05-06T14:13:48.125Z,16.00
2019-05-06T14:18:54.791Z,15.95
2019-05-06T14:23:59.361Z,16.13
2019-05-06T14:29:08.826Z,16.24
2019-05-06T14:34:14.349Z,16.45
2019-05-06T14:39:23.654Z,16.38
2019-05-06T14:44:26.933Z,16.58
2019-05-06T14:49:32.581Z,16.66
2019-05-06T14:54:39.126Z,16.40
2019-05-06T14:59:43.682Z,16.63
2019-05-06T15:04:48.313Z,16.61
2019-05-06T15:10:02.499Z,16.49
2019-05-06T15:14:59.193Z,15.93
2019-05-06T15:20:05.039Z,15.17
2019-05-06T15:25:09.731Z,14.65
2019-05-06T15:30:34.074Z,14.36
2019-05-06T15:35:46.193Z,13.42
2019-05-06T15:40:52.529Z,13.16
2019-05-06T15:45:57.546Z,12.70
2019-05-06T15:51:02.233Z,12.44
2019-05-06T15:56:06.921Z,12.11
2019-05-06T16:01:14.286Z,11.91
2019-05-06T16:06:17.980Z,11.64
2019-05-06T16:11:22.630Z,11.41
2019-05-06T16:16:27.295Z,11.37
2019-05-06T16:21:33.450Z,11.18
2019-05-06T16:26:38.248Z,10.73
2019-05-06T16:31:42.898Z,10.56
2019-05-06T16:36:49.104Z,10.17
2019-05-06T16:41:53.791Z,10.04
2019-05-06T16:47:00.072Z,9.77
2019-05-06T16:52:04.735Z,9.30
2019-05-06T16:57:13.586Z,9.30
2019-05-06T17:02:19.738Z,9.32
2019-05-06T17:07:24.872Z,9.17
2019-05-06T17:12:31.805Z,9.13
2019-05-06T17:17:43.431Z,9.27
2019-05-06T17:22:43.795Z,9.02
2019-05-06T17:27:49.779Z,9.08
2019-05-06T17:33:13.484Z,8.96
2019-05-06T17:38:19.659Z,8.97
2019-05-06T17:43:24.266Z,8.92
2019-05-06T17:48:43.997Z,8.96
2019-05-06T17:53:52.249Z,9.06
2019-05-06T17:58:56.712Z,9.05
2019-05-06T18:04:02.219Z,8.97
2019-05-06T18:09:09.124Z,9.03
2019-05-06T18:14:17.097Z,9.10
2019-05-06T18:19:22.354Z,9.09
2019-05-06T18:24:26.910Z,9.09
2019-05-06T18:29:33.475Z,9.10
2019-05-06T18:34:38.705Z,9.10
2019-05-06T18:39:43.212Z,9.11
2019-05-06T18:44:47.866Z,9.11
2019-05-06T18:49:54.858Z,9.12
2019-05-06T18:54:59.636Z,9.14
2019-05-06T19:00:07.600Z,9.08
2019-05-06T19:05:14.242Z,9.01
2019-05-06T19:10:23.560Z,9.05
2019-05-06T19:15:29.165Z,8.94
2019-05-06T19:20:34.043Z,9.00
2019-05-06T19:25:42.692Z,8.99
2019-05-06T19:30:46.663Z,9.05
2019-05-06T19:35:52.272Z,9.16
2019-05-06T19:40:56.972Z,9.20
2019-05-06T19:46:02.619Z,9.26
2019-05-06T19:51:08.996Z,9.27
2019-05-06T19:56:13.529Z,9.24
2019-05-06T20:01:18.213Z,9.27
2019-05-06T20:06:24.513Z,9.27
2019-05-06T20:11:32.974Z,9.14
2019-05-06T20:16:37.492Z,9.04
2019-05-06T20:21:42.574Z,9.12
2019-05-06T20:27:10.295Z,9.02
2019-05-06T20:32:16.022Z,8.96
2019-05-06T20:37:22.285Z,8.77
2019-05-06T20:42:28.507Z,8.85
2019-05-06T20:48:12.701Z,8.93
2019-05-06T20:53:36.135Z,8.65
2019-05-06T20:58:47.306Z,8.44
2019-05-06T21:03:52.908Z,8.38
2019-05-06T21:08:57.685Z,8.23
2019-05-06T21:14:02.399Z,8.25
2019-05-06T21:19:12.421Z,8.16
2019-05-06T21:24:37.141Z,8.14
2019-05-06T21:29:47.270Z,7.99
2019-05-06T21:34:53.542Z,8.06
2019-05-06T21:39:59.159Z,8.14
2019-05-06T21:45:03.953Z,7.92
2019-05-06T21:50:09.042Z,7.90
2019-05-06T21:55:15.307Z,7.91
2019-05-06T22:00:23.424Z,7.71
2019-05-06T22:05:49.732Z,7.63
2019-05-06T22:10:54.368Z,7.52
2019-05-06T22:15:59.069Z,7.60
2019-05-06T22:21:11.562Z,7.47
2019-05-06T22:26:16.460Z,7.37
2019-05-06T22:31:23.831Z,7.46
2019-05-06T22:36:27.751Z,7.31
2019-05-06T22:41:32.672Z,7.34
2019-05-06T22:46:38.574Z,7.33
2019-05-06T22:51:43.184Z,7.31
2019-05-06T22:56:48.197Z,7.39
2019-05-06T23:02:10.494Z,7.59
2019-05-06T23:07:15.268Z,7.47
2019-05-06T23:12:20.461Z,7.53
2019-05-06T23:17:25.189Z,7.59
2019-05-06T23:22:31.574Z,7.64
2019-05-06T23:27:36.210Z,7.57
2019-05-06T23:32:42.240Z,7.65
2019-05-06T23:38:23.087Z,7.35
2019-05-06T23:44:03.496Z,7.20
2019-05-06T23:49:43.992Z,7.17
2019-05-06T23:55:24.448Z,7.25
